Flight Track Log - Related Links

Times and Time Zones

All times are in EDT time to prevent confusion due to time zone crossing. See the SLI2072 flight status page for this flight to view local times or setup timezone preferences in your user account.

Time Position Orientation Groundspeed Altitude Reporting Facility
EDT Latitude Longitude Course Direction KTS MPH feet Rate Location/Type
Wed 05:25:00 PM 20.2100 -100.7896 296° West  Level Estimated
Wed 05:26:00 PM 20.2483 -100.8759 295° West  Level Estimated
Wed 05:27:00 PM 20.2865 -100.9623 295° West  Level Estimated
Wed 05:28:00 PM 20.3246 -101.0487 295° West  Level Estimated
Wed 05:29:00 PM 20.3628 -101.1351 295° West  Level Estimated
Wed 05:30:00 PM 20.4008 -101.2216 295° West  Level Estimated
Wed 05:31:00 PM 20.4389 -101.3081 295° West  Level Estimated
Wed 05:32:00 PM 20.4769 -101.3947 295° West  Level Estimated
Wed 05:33:00 PM 20.5148 -101.4813 295° West  Level Estimated
Wed 05:34:00 PM 20.5527 -101.5680 295° West  Level Estimated
Wed 05:35:00 PM 20.5906 -101.6547 295° West  Level Estimated
Wed 05:36:00 PM 20.6284 -101.7414 295° West  Level Estimated
Wed 05:37:00 PM 20.6662 -101.8282 295° West  Level Estimated
Wed 05:38:00 PM 20.7040 -101.9150 295° West  Level Estimated
Wed 05:39:00 PM 20.7416 -102.0019 295° West  Level Estimated
Wed 05:40:00 PM 20.7793 -102.0888 295° West  Level Estimated
Wed 05:41:00 PM 20.8169 -102.1758 295° West  Level Estimated
Wed 05:42:00 PM 20.8545 -102.2628 295° West  Level Estimated
Wed 05:43:00 PM 20.8920 -102.3498 295° West  Level Estimated
Wed 05:44:00 PM 20.9294 -102.4369 295° West  Level Estimated
Wed 05:45:00 PM 20.9669 -102.5240 295° West  Level Estimated
Wed 05:46:00 PM 21.0043 -102.6112 295° West  Level Estimated
Wed 05:47:00 PM 21.0416 -102.6984 295° West  Level Estimated
Wed 05:48:00 PM 21.0789 -102.7857 295° West  Level Estimated
Wed 05:49:00 PM 21.1161 -102.8730 295° West  Level Estimated
Wed 05:50:00 PM 21.1534 -102.9604 295° West  Level Estimated
Wed 05:51:00 PM 21.1905 -103.0478 295° West  Level Estimated
Wed 05:52:00 PM 21.2276 -103.1352 294° West  Level Estimated
Wed 05:53:00 PM 21.2647 -103.2227 294° West  Level Estimated
Wed 05:54:00 PM 21.3017 -103.3102 294° West  Level Estimated
Wed 05:55:00 PM 21.3387 -103.3978 294° West  Level Estimated
Wed 05:56:00 PM 21.3757 -103.4854 294° West  Level Estimated
Wed 05:57:00 PM 21.4125 -103.5731 294° West  Level Estimated
Wed 05:58:00 PM 21.4494 -103.6608 294° West  Level Estimated
Wed 05:59:00 PM 21.4862 -103.7485 294° West  Level Estimated
Wed 06:00:00 PM 21.5229 -103.8363 294° West  Level Estimated
Wed 06:01:00 PM 21.5597 -103.9241 294° West  Level Estimated
Wed 06:02:00 PM 21.5963 -104.0120 294° West  Level Estimated
Wed 06:03:00 PM 21.6329 -104.1000 294° West  Level Estimated
Wed 06:04:00 PM 21.6695 -104.1879 294° West  Level Estimated
Wed 06:05:00 PM 21.7060 -104.2759 294° West  Level Estimated
Wed 06:06:00 PM 21.7425 -104.3640 294° West  Level Estimated
Wed 06:07:00 PM 21.7789 -104.4521 294° West  Level Estimated
Wed 06:08:00 PM 21.8153 -104.5403 294° West  Level Estimated
Wed 06:09:00 PM 21.8516 -104.6285 294° West  Level Estimated
Wed 06:10:00 PM 21.8879 -104.7167 294° West  Level Estimated
Wed 06:11:00 PM 21.9242 -104.8050 294° West  Level Estimated
Wed 06:12:00 PM 21.9604 -104.8933 294° West  Level Estimated
Wed 06:13:00 PM 21.9965 -104.9817 294° West  Level Estimated
Wed 06:14:00 PM 22.0326 -105.0701 294° West  Level Estimated
Wed 06:15:00 PM 22.0687 -105.1586 294° West  Level Estimated
Wed 06:16:00 PM 22.1047 -105.2471 294° West  Level Estimated
Wed 06:17:00 PM 22.1406 -105.3356 294° West  Level Estimated
Wed 06:18:00 PM 22.1765 -105.4242 294° West  Level Estimated
Wed 06:19:00 PM 22.2124 -105.5129 294° West  Level Estimated
Wed 06:20:00 PM 22.2482 -105.6016 294° West  Level Estimated
Wed 06:21:00 PM 22.2840 -105.6903 294° West  Level Estimated
Wed 06:22:00 PM 22.3197 -105.7791 294° West  Level Estimated
Wed 06:23:00 PM 22.3554 -105.8679 293° West  Level Estimated
Wed 06:24:00 PM 22.3910 -105.9568 293° West  Level Estimated
Wed 06:25:00 PM 22.4265 -106.0457 293° West  Level Estimated
Wed 06:26:00 PM 22.4621 -106.1347 293° West  Level Estimated
Wed 06:27:00 PM 22.4975 -106.2237 293° West  Level Estimated
Wed 06:28:00 PM 22.5330 -106.3127 293° West  Level Estimated
Wed 06:29:00 PM 22.5683 -106.4018 293° West  Level Estimated
Wed 06:30:00 PM 22.6037 -106.4910 293° West  Level Estimated
Wed 06:31:00 PM 22.6390 -106.5802 293° West  Level Estimated
Wed 06:32:00 PM 22.6742 -106.6694 293° West  Level Estimated
Wed 06:33:00 PM 22.7094 -106.7587 293° West  Level Estimated
Wed 06:34:00 PM 22.7445 -106.8480 293° West  Level Estimated
Wed 06:35:00 PM 22.7796 -106.9374 293° West  Level Estimated
Wed 06:36:00 PM 22.8146 -107.0268 293° West  Level Estimated
Wed 06:37:00 PM 22.8496 -107.1163 293° West  Level Estimated
Wed 06:38:00 PM 22.8845 -107.2058 293° West  Level Estimated
Wed 06:39:00 PM 22.9194 -107.2953 293° West  Level Estimated
Wed 06:40:00 PM 22.9542 -107.3850 293° West  Level Estimated
Wed 06:41:00 PM 22.9890 -107.4746 293° West  Level Estimated
Wed 06:42:00 PM 23.0237 -107.5643 293° West  Level Estimated
Wed 06:43:00 PM 23.0584 -107.6541 293° West  Level Estimated
Wed 06:44:00 PM 23.0931 -107.7438 293° West  Level Estimated
Wed 06:45:00 PM 23.1276 -107.8337 293° West  Level Estimated
Wed 06:46:00 PM 23.1622 -107.9236 293° West  Level Estimated
Wed 06:47:00 PM 23.1966 -108.0135 293° West  Level Estimated
Wed 06:48:00 PM 23.2311 -108.1035 293° West  Level Estimated
Wed 06:49:00 PM 23.2654 -108.1935 293° West  Level Estimated
Wed 06:50:00 PM 23.2997 -108.2836 293° West  Level Estimated
Wed 06:51:00 PM 23.3340 -108.3737 293° West  Level Estimated
Wed 06:52:00 PM 23.3682 -108.4638 292° West  Level Estimated
Wed 06:53:00 PM 23.4024 -108.5540 292° West  Level Estimated
Wed 06:54:00 PM 23.4365 -108.6443 292° West  Level Estimated
Wed 06:55:00 PM 23.4706 -108.7346 292° West  Level Estimated
Wed 06:56:00 PM 23.5046 -108.8249 292° West  Level Estimated
Wed 06:57:00 PM 23.5385 -108.9153 292° West  Level Estimated
Wed 06:58:00 PM 23.5725 -109.0058 292° West  Level Estimated
Wed 06:59:00 PM 23.6063 -109.0963 292° West  Level Estimated
Wed 07:00:00 PM 23.6401 -109.1868 292° West  Level Estimated
Wed 07:01:00 PM 23.6738 -109.2774 292° West  Level Estimated
Wed 07:02:00 PM 23.7076 -109.3680 292° West  Level Estimated
Wed 07:03:00 PM 23.7412 -109.4587 292° West  Level Estimated
Wed 07:04:00 PM 23.7748 -109.5494 292° West  Level Estimated
Wed 07:05:00 PM 23.8083 -109.6402 292° West  Level Estimated
Wed 07:06:00 PM 23.8418 -109.7310 292° West  Level Estimated
Wed 07:07:00 PM 23.8752 -109.8218 292° West  Level Estimated
Wed 07:08:00 PM 23.9086 -109.9127 292° West  Level Estimated
Wed 07:09:00 PM 23.9419 -110.0037 292° West  Level Estimated
Wed 07:10:00 PM 23.9752 -110.0947 292° West  Level Estimated
Wed 07:11:00 PM 24.0084 -110.1858 292° West  Level Estimated
Wed 07:12:00 PM 24.0416 -110.2768 292° West  Level Estimated
Wed 07:13:00 PM 24.0727 -110.3625 292° West  Level Estimated
Wed 07:14:00 PM 24.0727 -110.3625 49° Northeast  Level Estimated
Wed 07:15:00 PM 24.0727 -110.3625 49° Northeast  Level Estimated
Wed 07:16:00 PM 24.0727 -110.3625 49° Northeast  Level Estimated
Wed 07:17:00 PM 24.0727 -110.3625 49° Northeast  Level Estimated
Wed 07:18:00 PM 24.0727 -110.3625 49° Northeast  Level Estimated
Wed 07:19:00 PM 24.0727 -110.3625 49° Northeast  Level Estimated
Wed 07:20:00 PM 24.0727 -110.3625 49° Northeast  Level Estimated
Wed 07:21:00 PM 24.0727 -110.3625 49° Northeast  Level Estimated
Wed 07:22:00 PM 24.0727 -110.3625 49° Northeast  Level Estimated
Wed 07:23:00 PM 24.0727 -110.3625 49° Northeast  Level Estimated
Wed 07:24:00 PM 24.0727 -110.3625 49° Northeast  Level Estimated
Wed 07:25:00 PM 24.0727 -110.3625 49° Northeast  Level Estimated
Wed 07:26:00 PM 24.0727 -110.3625 49° Northeast  Level Estimated
Wed 07:27:00 PM 24.0727 -110.3625 49° Northeast  Level Estimated

Login

Don't have an account? Register now (free) for customized features, flight alerts, and more!